Time,TemperatureF,DewpointF,PressureIn,WindDirection,WindDirectionDegrees,WindSpeedMPH,WindSpeedGustMPH,Humidity,HourlyPrecipIn,Conditions,Clouds,dailyrainin,SoftwareType,DateUTC
2013-06-11 00:00:00,56.3,52.8,30.04,SE,145,0.0,8.0,88,0.15,,,0.99,Wunderground v.1.15,2013-06-11 04:00:00,
2013-06-11 00:06:00,56.2,52.7,30.04,East,86,0.0,5.0,88,0.16,,,0.00,Wunderground v.1.15,2013-06-11 04:06:00,
2013-06-11 00:11:00,56.2,52.7,30.03,SE,134,1.0,5.0,88,0.15,,,0.01,Wunderground v.1.15,2013-06-11 04:11:00,
2013-06-11 00:16:00,56.2,52.7,30.03,ESE,111,0.0,5.0,88,0.10,,,0.02,Wunderground v.1.15,2013-06-11 04:16:00,
2013-06-11 00:21:00,56.2,52.7,30.02,ESE,123,1.0,5.0,88,0.11,,,0.03,Wunderground v.1.15,2013-06-11 04:21:00,
2013-06-11 00:27:00,56.2,52.7,30.01,SE,130,0.0,4.0,88,0.08,,,0.03,Wunderground v.1.15,2013-06-11 04:27:00,
2013-06-11 00:33:00,56.2,52.7,30.01,East,89,1.0,1.0,88,0.04,,,0.03,Wunderground v.1.15,2013-06-11 04:33:00,
2013-06-11 00:39:00,56.1,52.6,30.00,ENE,66,1.0,2.0,88,0.00,,,0.04,Wunderground v.1.15,2013-06-11 04:39:00,
2013-06-11 00:45:00,56.1,52.3,30.00,ESE,114,1.0,5.0,87,0.10,,,0.05,Wunderground v.1.15,2013-06-11 04:45:00,
2013-06-11 00:50:00,56.0,52.2,30.00,East,96,2.0,5.0,87,0.09,,,0.05,Wunderground v.1.15,2013-06-11 04:50:00,
2013-06-11 00:55:00,56.0,52.5,30.00,NE,55,1.0,4.0,88,0.06,,,0.06,Wunderground v.1.15,2013-06-11 04:55:00,
2013-06-11 01:01:00,56.0,52.2,29.99,South,188,5.0,5.0,87,0.10,,,0.07,Wunderground v.1.15,2013-06-11 05:01:00,
2013-06-11 01:07:00,56.0,52.2,29.99,ENE,59,1.0,2.0,87,0.64,,,0.09,Wunderground v.1.15,2013-06-11 05:07:00,
2013-06-11 01:13:00,55.9,52.4,29.99,SSE,151,4.0,4.0,88,0.19,,,0.12,Wunderground v.1.15,2013-06-11 05:13:00,
2013-06-11 01:19:00,55.9,52.4,29.99,SSE,157,1.0,4.0,88,0.36,,,0.17,Wunderground v.1.15,2013-06-11 05:19:00,
2013-06-11 01:24:00,55.8,52.3,29.98,ESE,106,2.0,3.0,88,0.38,,,0.22,Wunderground v.1.15,2013-06-11 05:24:00,
2013-06-11 01:30:00,55.8,52.3,29.97,ESE,112,7.0,7.0,88,0.20,,,0.24,Wunderground v.1.15,2013-06-11 05:30:00,
2013-06-11 01:35:00,55.7,52.2,29.97,East,98,2.0,3.0,88,0.16,,,0.25,Wunderground v.1.15,2013-06-11 05:35:00,
2013-06-11 01:41:00,55.7,52.2,29.97,South,191,3.0,3.0,88,0.07,,,0.25,Wunderground v.1.15,2013-06-11 05:41:00,
2013-06-11 01:47:00,55.6,52.1,29.96,ENE,73,1.0,4.0,88,0.05,,,0.26,Wunderground v.1.15,2013-06-11 05:47:00,
2013-06-11 01:52:00,55.6,52.1,29.95,SSE,158,3.0,3.0,88,0.07,,,0.27,Wunderground v.1.15,2013-06-11 05:52:00,
2013-06-11 01:58:00,55.6,52.1,29.95,SSW,195,3.0,3.0,88,0.07,,,0.27,Wunderground v.1.15,2013-06-11 05:58:00,
2013-06-11 02:04:00,55.5,52.0,29.94,SW,232,2.0,2.0,88,0.05,,,0.27,Wunderground v.1.15,2013-06-11 06:04:00,
2013-06-11 02:09:00,55.5,52.0,29.94,East,92,0.0,2.0,88,0.04,,,0.28,Wunderground v.1.15,2013-06-11 06:09:00,
2013-06-11 02:15:00,55.5,52.0,29.94,SSE,167,1.0,3.0,88,0.06,,,0.29,Wunderground v.1.15,2013-06-11 06:15:00,
2013-06-11 02:21:00,55.5,52.0,29.93,ESE,112,3.0,3.0,88,0.15,,,0.31,Wunderground v.1.15,2013-06-11 06:21:00,
2013-06-11 02:26:00,55.4,51.9,29.92,ENE,74,2.0,4.0,88,0.19,,,0.32,Wunderground v.1.15,2013-06-11 06:26:00,
2013-06-11 02:31:00,55.4,51.9,29.92,NNE,17,2.0,4.0,88,0.17,,,0.34,Wunderground v.1.15,2013-06-11 06:31:00,
2013-06-11 02:37:00,55.4,51.9,29.92,South,173,3.0,8.0,88,0.09,,,0.34,Wunderground v.1.15,2013-06-11 06:37:00,
2013-06-11 02:42:00,55.5,52.0,29.92,South,173,2.0,8.0,88,0.29,,,0.36,Wunderground v.1.15,2013-06-11 06:42:00,
2013-06-11 02:47:00,55.5,52.0,29.92,ENE,60,1.0,6.0,88,0.17,,,0.38,Wunderground v.1.15,2013-06-11 06:47:00,
2013-06-11 02:51:00,55.5,52.0,29.92,SE,131,1.0,6.0,88,0.13,,,0.39,Wunderground v.1.15,2013-06-11 06:51:00,
2013-06-11 02:57:00,55.5,52.0,29.92,SE,135,0.0,2.0,88,0.07,,,0.39,Wunderground v.1.15,2013-06-11 06:57:00,
2013-06-11 03:02:00,55.5,52.0,29.92,East,88,0.0,3.0,88,0.04,,,0.39,Wunderground v.1.15,2013-06-11 07:02:00,
2013-06-11 03:07:00,55.6,52.1,29.91,ESE,103,2.0,4.0,88,0.00,,,0.39,Wunderground v.1.15,2013-06-11 07:07:00,
2013-06-11 03:12:00,55.5,52.0,29.91,ESE,104,1.0,5.0,88,0.00,,,0.39,Wunderground v.1.15,2013-06-11 07:12:00,
2013-06-11 03:17:00,55.5,52.0,29.90,ENE,78,2.0,6.0,88,0.00,,,0.39,Wunderground v.1.15,2013-06-11 07:17:00,
2013-06-11 03:22:00,55.6,52.1,29.90,NE,55,2.0,6.0,88,0.00,,,0.40,Wunderground v.1.15,2013-06-11 07:22:00,
2013-06-11 03:27:00,55.5,52.0,29.90,WSW,245,0.0,4.0,88,0.23,,,0.42,Wunderground v.1.15,2013-06-11 07:27:00,
2013-06-11 03:32:00,55.6,52.1,29.89,ENE,76,3.0,4.0,88,0.18,,,0.44,Wunderground v.1.15,2013-06-11 07:32:00,
2013-06-11 03:37:00,55.5,52.0,29.89,ENE,63,1.0,5.0,88,0.20,,,0.46,Wunderground v.1.15,2013-06-11 07:37:00,
2013-06-11 03:42:00,55.5,52.0,29.89,ENE,76,2.0,6.0,88,0.22,,,0.48,Wunderground v.1.15,2013-06-11 07:42:00,
2013-06-11 03:47:00,55.5,52.0,29.88,SSW,194,0.0,2.0,88,0.38,,,0.51,Wunderground v.1.15,2013-06-11 07:47:00,
2013-06-11 03:52:00,55.6,52.1,29.88,West,261,0.0,1.0,88,0.40,,,0.54,Wunderground v.1.15,2013-06-11 07:52:00,
2013-06-11 03:57:00,55.5,52.0,29.87,ENE,65,3.0,3.0,88,0.36,,,0.58,Wunderground v.1.15,2013-06-11 07:57:00,
2013-06-11 04:02:00,55.5,52.0,29.86,ENE,64,6.0,6.0,88,0.32,,,0.61,Wunderground v.1.15,2013-06-11 08:02:00,
2013-06-11 04:07:00,55.5,52.0,29.86,SSE,153,1.0,6.0,88,0.25,,,0.63,Wunderground v.1.15,2013-06-11 08:07:00,
2013-06-11 04:13:00,55.5,52.0,29.86,East,79,2.0,2.0,88,0.19,,,0.64,Wunderground v.1.15,2013-06-11 08:13:00,
2013-06-11 04:18:00,55.5,52.0,29.86,WNW,289,2.0,3.0,88,0.12,,,0.65,Wunderground v.1.15,2013-06-11 08:18:00,
2013-06-11 04:23:00,55.5,52.0,29.86,ENE,67,0.0,2.0,88,0.07,,,0.66,Wunderground v.1.15,2013-06-11 08:23:00,
2013-06-11 04:28:00,55.5,52.0,29.86,East,99,4.0,4.0,88,0.07,,,0.66,Wunderground v.1.15,2013-06-11 08:28:00,
2013-06-11 04:33:00,55.4,51.9,29.85,ENE,74,1.0,1.0,88,0.23,,,0.68,Wunderground v.1.15,2013-06-11 08:33:00,
2013-06-11 04:38:00,55.4,51.9,29.85,ENE,57,0.0,3.0,88,0.19,,,0.69,Wunderground v.1.15,2013-06-11 08:38:00,
2013-06-11 04:43:00,55.4,51.9,29.85,West,270,0.0,2.0,88,0.69,,,0.75,Wunderground v.1.15,2013-06-11 08:43:00,
2013-06-11 04:48:00,55.4,51.9,29.85,ENE,71,0.0,3.0,88,0.16,,,0.76,Wunderground v.1.15,2013-06-11 08:48:00,
2013-06-11 04:53:00,55.4,51.9,29.85,NNE,31,1.0,2.0,88,0.07,,,0.76,Wunderground v.1.15,2013-06-11 08:53:00,
2013-06-11 04:58:00,55.4,51.9,29.85,North,360,0.0,3.0,88,0.05,,,0.77,Wunderground v.1.15,2013-06-11 08:58:00,
2013-06-11 05:03:00,55.4,51.9,29.84,ENE,61,1.0,2.0,88,0.09,,,0.78,Wunderground v.1.15,2013-06-11 09:03:00,
2013-06-11 05:08:00,55.4,51.9,29.84,ENE,61,2.0,2.0,88,0.09,,,0.78,Wunderground v.1.15,2013-06-11 09:08:00,
2013-06-11 05:13:00,55.3,51.8,29.85,East,85,0.0,3.0,88,0.08,,,0.79,Wunderground v.1.15,2013-06-11 09:13:00,
2013-06-11 05:18:00,56.6,52.8,29.84,ESE,110,0.0,3.0,87,0.08,,,0.79,Wunderground v.1.15,2013-06-11 09:18:00,
2013-06-11 05:23:00,58.8,54.9,29.83,NNE,26,1.0,3.0,87,0.05,,,0.79,Wunderground v.1.15,2013-06-11 09:23:00,
2013-06-11 05:29:00,57.5,53.7,29.83,ENE,64,1.0,5.0,87,0.00,,,0.79,Wunderground v.1.15,2013-06-11 09:29:00,
2013-06-11 05:34:00,56.0,52.2,29.83,East,101,2.0,2.0,87,0.00,,,0.79,Wunderground v.1.15,2013-06-11 09:34:00,
2013-06-11 05:39:00,55.6,52.1,29.82,East,84,2.0,3.0,88,0.00,,,0.79,Wunderground v.1.15,2013-06-11 09:39:00,
2013-06-11 05:44:00,55.4,51.9,29.82,East,80,2.0,4.0,88,0.00,,,0.79,Wunderground v.1.15,2013-06-11 09:44:00,
2013-06-11 05:49:00,55.4,51.9,29.82,NNW,335,1.0,6.0,88,0.00,,,0.79,Wunderground v.1.15,2013-06-11 09:49:00,
2013-06-11 05:54:00,55.4,51.9,29.82,NW,319,1.0,2.0,88,0.00,,,0.79,Wunderground v.1.15,2013-06-11 09:54:00,
2013-06-11 05:59:00,55.4,51.9,29.82,West,259,0.0,3.0,88,0.00,,,0.79,Wunderground v.1.15,2013-06-11 09:59:00,
2013-06-11 06:04:00,55.4,51.9,29.81,West,259,2.0,3.0,88,0.00,,,0.79,Wunderground v.1.15,2013-06-11 10:04:00,
2013-06-11 06:10:00,55.4,51.9,29.81,NW,311,0.0,6.0,88,0.00,,,0.79,Wunderground v.1.15,2013-06-11 10:10:00,
2013-06-11 06:15:00,55.3,51.8,29.80,WSW,252,0.0,3.0,88,0.00,,,0.79,Wunderground v.1.15,2013-06-11 10:15:00,
2013-06-11 06:20:00,55.4,51.9,29.80,SW,217,1.0,3.0,88,0.00,,,0.80,Wunderground v.1.15,2013-06-11 10:20:00,
2013-06-11 06:25:00,55.4,51.9,29.81,WSW,244,1.0,4.0,88,0.28,,,0.81,Wunderground v.1.15,2013-06-11 10:25:00,
2013-06-11 06:30:00,55.4,51.9,29.80,South,171,0.0,4.0,88,0.54,,,0.85,Wunderground v.1.15,2013-06-11 10:30:00,
2013-06-11 06:35:00,55.5,52.0,29.80,NNW,345,1.0,3.0,88,0.20,,,0.86,Wunderground v.1.15,2013-06-11 10:35:00,
2013-06-11 06:40:00,55.5,52.0,29.80,NW,326,0.0,3.0,88,0.07,,,0.86,Wunderground v.1.15,2013-06-11 10:40:00,
2013-06-11 06:45:00,55.5,52.0,29.80,NW,325,0.0,3.0,88,0.05,,,0.86,Wunderground v.1.15,2013-06-11 10:45:00,
2013-06-11 06:50:00,55.4,51.9,29.80,East,94,0.0,7.0,88,0.00,,,0.86,Wunderground v.1.15,2013-06-11 10:50:00,
2013-06-11 06:56:00,55.5,52.0,29.79,East,94,0.0,2.0,88,0.00,,,0.87,Wunderground v.1.15,2013-06-11 10:56:00,
2013-06-11 07:01:00,55.6,52.1,29.79,East,94,1.0,2.0,88,0.07,,,0.88,Wunderground v.1.15,2013-06-11 11:01:00,
2013-06-11 07:06:00,55.7,52.2,29.79,East,86,1.0,3.0,88,0.07,,,0.88,Wunderground v.1.15,2013-06-11 11:06:00,
2013-06-11 07:11:00,55.8,52.3,29.79,East,86,1.0,3.0,88,0.06,,,0.88,Wunderground v.1.15,2013-06-11 11:11:00,
2013-06-11 07:16:00,55.8,52.3,29.78,East,84,1.0,2.0,88,0.21,,,0.90,Wunderground v.1.15,2013-06-11 11:16:00,
2013-06-11 07:22:00,55.8,52.3,29.78,East,84,0.0,2.0,88,0.21,,,0.92,Wunderground v.1.15,2013-06-11 11:22:00,
2013-06-11 07:27:00,55.9,52.4,29.78,West,278,0.0,3.0,88,0.09,,,0.92,Wunderground v.1.15,2013-06-11 11:27:00,
2013-06-11 07:32:00,55.7,52.2,29.78,North,360,1.0,5.0,88,0.05,,,0.92,Wunderground v.1.15,2013-06-11 11:32:00,
2013-06-11 07:37:00,55.8,52.3,29.78,North,360,0.0,3.0,88,0.04,,,0.92,Wunderground v.1.15,2013-06-11 11:37:00,
2013-06-11 07:42:00,55.9,52.4,29.78,North,5,0.0,3.0,88,0.00,,,0.92,Wunderground v.1.15,2013-06-11 11:42:00,
2013-06-11 07:47:00,56.1,52.3,29.78,North,5,0.0,2.0,87,0.00,,,0.92,Wunderground v.1.15,2013-06-11 11:47:00,
2013-06-11 07:52:00,56.0,52.5,29.78,NNW,342,1.0,1.0,88,0.00,,,0.92,Wunderground v.1.15,2013-06-11 11:52:00,
2013-06-11 07:57:00,56.1,52.6,29.77,NNW,342,1.0,2.0,88,0.00,,,0.92,Wunderground v.1.15,2013-06-11 11:57:00,
2013-06-11 08:02:00,56.2,52.7,29.77,West,271,0.0,2.0,88,0.00,,,0.92,Wunderground v.1.15,2013-06-11 12:02:00,
2013-06-11 08:08:00,56.2,52.7,29.77,West,271,1.0,3.0,88,0.00,,,0.92,Wunderground v.1.15,2013-06-11 12:08:00,
2013-06-11 08:13:00,56.2,52.7,29.77,NW,313,1.0,2.0,88,0.00,,,0.92,Wunderground v.1.15,2013-06-11 12:13:00,
2013-06-11 08:18:00,56.4,52.9,29.77,NW,318,0.0,3.0,88,0.00,,,0.92,Wunderground v.1.15,2013-06-11 12:18:00,
2013-06-11 08:23:00,56.5,53.0,29.77,NW,318,1.0,1.0,88,0.00,,,0.92,Wunderground v.1.15,2013-06-11 12:23:00,
2013-06-11 08:28:00,56.6,53.1,29.77,WNW,286,0.0,2.0,88,0.00,,,0.92,Wunderground v.1.15,2013-06-11 12:28:00,
2013-06-11 08:33:00,56.6,53.1,29.77,NW,319,2.0,2.0,88,0.00,,,0.92,Wunderground v.1.15,2013-06-11 12:33:00,
2013-06-11 08:38:00,56.2,52.7,29.77,WNW,299,1.0,7.0,88,0.00,,,0.92,Wunderground v.1.15,2013-06-11 12:38:00,
2013-06-11 08:43:00,56.5,53.0,29.77,WNW,298,3.0,3.0,88,0.00,,,0.92,Wunderground v.1.15,2013-06-11 12:43:00,
2013-06-11 08:48:00,56.4,52.9,29.76,NW,313,2.0,5.0,88,0.00,,,0.92,Wunderground v.1.15,2013-06-11 12:48:00,
2013-06-11 08:54:00,56.5,53.0,29.76,NW,312,1.0,3.0,88,0.00,,,0.92,Wunderground v.1.15,2013-06-11 12:54:00,
2013-06-11 08:59:00,56.8,53.3,29.76,NW,312,0.0,3.0,88,0.00,,,0.92,Wunderground v.1.15,2013-06-11 12:59:00,
2013-06-11 09:04:00,56.5,53.0,29.76,NW,315,4.0,4.0,88,0.00,,,0.92,Wunderground v.1.15,2013-06-11 13:04:00,
2013-06-11 09:09:00,56.3,52.8,29.76,WSW,250,3.0,7.0,88,0.00,,,0.92,Wunderground v.1.15,2013-06-11 13:09:00,
2013-06-11 09:14:00,56.3,52.8,29.75,NW,321,6.0,6.0,88,0.00,,,0.92,Wunderground v.1.15,2013-06-11 13:14:00,
2013-06-11 09:19:00,56.2,52.7,29.75,NW,312,0.0,6.0,88,0.00,,,0.92,Wunderground v.1.15,2013-06-11 13:19:00,
2013-06-11 09:24:00,56.4,52.9,29.75,WNW,303,1.0,3.0,88,0.00,,,0.92,Wunderground v.1.15,2013-06-11 13:24:00,
2013-06-11 09:29:00,56.6,53.1,29.75,NW,314,1.0,3.0,88,0.00,,,0.92,Wunderground v.1.15,2013-06-11 13:29:00,
2013-06-11 09:34:00,56.6,53.1,29.75,NW,313,2.0,5.0,88,0.00,,,0.92,Wunderground v.1.15,2013-06-11 13:34:00,
2013-06-11 09:40:00,56.6,53.1,29.75,NW,313,2.0,5.0,88,0.00,,,0.92,Wunderground v.1.15,2013-06-11 13:40:00,
2013-06-11 09:45:00,56.5,53.0,29.75,WNW,293,3.0,4.0,88,0.00,,,0.92,Wunderground v.1.15,2013-06-11 13:45:00,
2013-06-11 09:50:00,56.5,53.0,29.75,WNW,300,2.0,4.0,88,0.00,,,0.92,Wunderground v.1.15,2013-06-11 13:50:00,
2013-06-11 09:55:00,56.5,53.0,29.75,NW,311,1.0,4.0,88,0.00,,,0.92,Wunderground v.1.15,2013-06-11 13:55:00,
2013-06-11 10:00:00,56.4,52.9,29.75,NW,323,6.0,7.0,88,0.00,,,0.92,Wunderground v.1.15,2013-06-11 14:00:00,
2013-06-11 10:05:00,56.4,52.9,29.75,WNW,288,5.0,9.0,88,0.00,,,0.92,Wunderground v.1.15,2013-06-11 14:05:00,
2013-06-11 10:10:00,56.7,53.2,29.75,NNW,327,1.0,9.0,88,0.00,,,0.92,Wunderground v.1.15,2013-06-11 14:10:00,
2013-06-11 10:15:00,56.7,53.2,29.75,NW,310,2.0,4.0,88,0.00,,,0.92,Wunderground v.1.15,2013-06-11 14:15:00,
2013-06-11 10:20:00,56.7,53.2,29.75,NW,313,4.0,5.0,88,0.00,,,0.92,Wunderground v.1.15,2013-06-11 14:20:00,
2013-06-11 10:25:00,56.7,53.2,29.75,WSW,252,7.0,8.0,88,0.00,,,0.92,Wunderground v.1.15,2013-06-11 14:25:00,
2013-06-11 10:30:00,56.5,53.3,29.75,SW,226,4.0,8.0,89,0.00,,,0.92,Wunderground v.1.15,2013-06-11 14:30:00,
2013-06-11 10:35:00,56.7,53.5,29.75,West,281,2.0,8.0,89,0.00,,,0.92,Wunderground v.1.15,2013-06-11 14:35:00,
2013-06-11 10:40:00,56.6,53.4,29.75,NW,309,3.0,8.0,89,0.00,,,0.92,Wunderground v.1.15,2013-06-11 14:40:00,
2013-06-11 10:45:00,56.6,53.4,29.74,NW,311,3.0,8.0,89,0.00,,,0.92,Wunderground v.1.15,2013-06-11 14:45:00,
2013-06-11 10:50:00,56.9,53.7,29.75,WNW,284,2.0,8.0,89,0.00,,,0.92,Wunderground v.1.15,2013-06-11 14:50:00,
2013-06-11 10:55:00,57.0,53.8,29.74,WNW,300,3.0,8.0,89,0.00,,,0.92,Wunderground v.1.15,2013-06-11 14:55:00,
2013-06-11 11:00:00,57.2,54.0,29.75,NW,313,2.0,8.0,89,0.00,,,0.92,Wunderground v.1.15,2013-06-11 15:00:00,
2013-06-11 11:05:00,57.4,54.2,29.75,NW,309,3.0,6.0,89,0.00,,,0.92,Wunderground v.1.15,2013-06-11 15:05:00,
2013-06-11 11:10:00,57.4,54.5,29.75,WNW,290,1.0,6.0,90,0.00,,,0.92,Wunderground v.1.15,2013-06-11 15:10:00,
2013-06-11 11:15:00,57.8,54.6,29.75,WNW,290,3.0,4.0,89,0.00,,,0.92,Wunderground v.1.15,2013-06-11 15:15:00,
2013-06-11 11:20:00,57.6,54.7,29.75,NW,311,4.0,6.0,90,0.00,,,0.92,Wunderground v.1.15,2013-06-11 15:20:00,
2013-06-11 11:25:00,57.8,54.9,29.75,WSW,242,0.0,2.0,90,0.00,,,0.92,Wunderground v.1.15,2013-06-11 15:25:00,
2013-06-11 11:30:00,57.9,55.0,29.74,NW,308,1.0,6.0,90,0.00,,,0.92,Wunderground v.1.15,2013-06-11 15:30:00,
2013-06-11 11:35:00,58.0,55.1,29.74,NW,306,0.0,5.0,90,0.00,,,0.92,Wunderground v.1.15,2013-06-11 15:35:00,
2013-06-11 11:40:00,58.4,55.5,29.74,NW,304,1.0,5.0,90,0.00,,,0.92,Wunderground v.1.15,2013-06-11 15:40:00,
2013-06-11 11:45:00,58.6,55.7,29.74,NW,320,3.0,4.0,90,0.00,,,0.92,Wunderground v.1.15,2013-06-11 15:45:00,
2013-06-11 11:50:00,58.1,55.2,29.74,WNW,291,2.0,7.0,90,0.00,,,0.92,Wunderground v.1.15,2013-06-11 15:50:00,
2013-06-11 11:55:00,58.2,55.3,29.74,West,275,0.0,4.0,90,0.00,,,0.92,Wunderground v.1.15,2013-06-11 15:55:00,
2013-06-11 12:01:00,58.7,55.8,29.74,NW,312,2.0,7.0,90,0.00,,,0.92,Wunderground v.1.15,2013-06-11 16:01:00,
2013-06-11 12:06:00,59.0,56.1,29.74,WNW,298,2.0,5.0,90,0.00,,,0.92,Wunderground v.1.15,2013-06-11 16:06:00,
2013-06-11 12:11:00,59.3,56.1,29.74,NW,325,0.0,7.0,89,0.00,,,0.92,Wunderground v.1.15,2013-06-11 16:11:00,
2013-06-11 12:16:00,59.9,56.6,29.74,NW,309,5.0,8.0,89,0.00,,,0.92,Wunderground v.1.15,2013-06-11 16:16:00,
2013-06-11 12:21:00,59.4,55.8,29.74,West,277,4.0,8.0,88,0.00,,,0.92,Wunderground v.1.15,2013-06-11 16:21:00,
2013-06-11 12:26:00,59.2,56.0,29.74,West,272,2.0,6.0,89,0.00,,,0.92,Wunderground v.1.15,2013-06-11 16:26:00,
2013-06-11 12:31:00,59.5,56.3,29.74,NW,319,0.0,6.0,89,0.00,,,0.92,Wunderground v.1.15,2013-06-11 16:31:00,
2013-06-11 12:36:00,59.9,56.6,29.74,WNW,296,2.0,4.0,89,0.00,,,0.92,Wunderground v.1.15,2013-06-11 16:36:00,
2013-06-11 12:41:00,59.8,56.2,29.74,NW,306,2.0,5.0,88,0.00,,,0.92,Wunderground v.1.15,2013-06-11 16:41:00,
2013-06-11 12:46:00,59.9,56.6,29.74,WNW,298,1.0,4.0,89,0.00,,,0.92,Wunderground v.1.15,2013-06-11 16:46:00,
2013-06-11 12:51:00,60.1,56.8,29.74,West,281,2.0,5.0,89,0.00,,,0.92,Wunderground v.1.15,2013-06-11 16:51:00,
2013-06-11 12:56:00,60.3,57.0,29.74,NW,309,3.0,6.0,89,0.00,,,0.92,Wunderground v.1.15,2013-06-11 16:56:00,
2013-06-11 13:01:00,60.4,56.8,29.74,NW,306,1.0,6.0,88,0.00,,,0.92,Wunderground v.1.15,2013-06-11 17:01:00,
2013-06-11 13:06:00,60.3,56.7,29.74,WNW,296,3.0,6.0,88,0.00,,,0.92,Wunderground v.1.15,2013-06-11 17:06:00,
2013-06-11 13:11:00,60.3,56.7,29.73,NNW,329,2.0,6.0,88,0.00,,,0.92,Wunderground v.1.15,2013-06-11 17:11:00,
2013-06-11 13:16:00,60.3,56.7,29.73,NW,319,2.0,5.0,88,0.00,,,0.92,Wunderground v.1.15,2013-06-11 17:16:00,
2013-06-11 13:21:00,60.3,56.7,29.73,WNW,294,1.0,5.0,88,0.00,,,0.92,Wunderground v.1.15,2013-06-11 17:21:00,
2013-06-11 13:26:00,60.4,56.8,29.73,WNW,290,3.0,6.0,88,0.00,,,0.92,Wunderground v.1.15,2013-06-11 17:26:00,
2013-06-11 13:31:00,60.6,57.0,29.73,WNW,292,4.0,6.0,88,0.00,,,0.92,Wunderground v.1.15,2013-06-11 17:31:00,
2013-06-11 13:36:00,60.7,57.1,29.72,WNW,297,0.0,3.0,88,0.00,,,0.92,Wunderground v.1.15,2013-06-11 17:36:00,
2013-06-11 13:41:00,61.0,57.4,29.72,WNW,297,1.0,3.0,88,0.00,,,0.92,Wunderground v.1.15,2013-06-11 17:41:00,
2013-06-11 13:46:00,61.2,57.6,29.72,WNW,291,3.0,4.0,88,0.00,,,0.92,Wunderground v.1.15,2013-06-11 17:46:00,
2013-06-11 13:52:00,60.9,57.0,29.72,WNW,289,1.0,5.0,87,0.00,,,0.92,Wunderground v.1.15,2013-06-11 17:52:00,
2013-06-11 13:57:00,61.0,57.1,29.72,WNW,296,1.0,3.0,87,0.00,,,0.92,Wunderground v.1.15,2013-06-11 17:57:00,
2013-06-11 14:02:00,61.2,57.3,29.72,NW,314,2.0,6.0,87,0.00,,,0.92,Wunderground v.1.15,2013-06-11 18:02:00,
2013-06-11 14:07:00,61.1,57.2,29.72,WNW,296,3.0,4.0,87,0.00,,,0.92,Wunderground v.1.15,2013-06-11 18:07:00,
2013-06-11 14:12:00,60.9,57.0,29.71,NW,304,4.0,7.0,87,0.00,,,0.92,Wunderground v.1.15,2013-06-11 18:12:00,
2013-06-11 14:17:00,60.9,57.3,29.71,West,267,2.0,7.0,88,0.00,,,0.92,Wunderground v.1.15,2013-06-11 18:17:00,
2013-06-11 14:22:00,60.9,57.0,29.71,WNW,283,0.0,2.0,87,0.00,,,0.92,Wunderground v.1.15,2013-06-11 18:22:00,
2013-06-11 14:27:00,61.3,57.4,29.70,WNW,283,1.0,3.0,87,0.00,,,0.92,Wunderground v.1.15,2013-06-11 18:27:00,
2013-06-11 14:32:00,61.8,57.9,29.71,WNW,283,1.0,1.0,87,0.00,,,0.92,Wunderground v.1.15,2013-06-11 18:32:00,
2013-06-11 14:37:00,62.0,57.8,29.71,WNW,283,2.0,4.0,86,0.00,,,0.92,Wunderground v.1.15,2013-06-11 18:37:00,
2013-06-11 14:42:00,61.7,57.5,29.70,NW,315,1.0,1.0,86,0.00,,,0.92,Wunderground v.1.15,2013-06-11 18:42:00,
2013-06-11 14:47:00,61.7,57.8,29.70,NW,323,1.0,3.0,87,0.00,,,0.92,Wunderground v.1.15,2013-06-11 18:47:00,
2013-06-11 14:52:00,61.8,57.9,29.70,NW,319,1.0,1.0,87,0.00,,,0.92,Wunderground v.1.15,2013-06-11 18:52:00,
2013-06-11 14:57:00,61.9,58.0,29.70,NW,323,3.0,4.0,87,0.00,,,0.92,Wunderground v.1.15,2013-06-11 18:57:00,
2013-06-11 15:02:00,62.0,58.1,29.70,NW,323,0.0,1.0,87,0.00,,,0.92,Wunderground v.1.15,2013-06-11 19:02:00,
2013-06-11 15:07:00,62.2,58.3,29.69,NW,323,2.0,2.0,87,0.00,,,0.92,Wunderground v.1.15,2013-06-11 19:07:00,
2013-06-11 15:12:00,62.6,58.7,29.69,NW,316,0.0,1.0,87,0.00,,,0.92,Wunderground v.1.15,2013-06-11 19:12:00,
2013-06-11 15:18:00,63.0,58.7,29.69,NW,316,0.0,2.0,86,0.00,,,0.92,Wunderground v.1.15,2013-06-11 19:18:00,
2013-06-11 15:23:00,62.9,58.6,29.68,NW,322,0.0,1.0,86,0.00,,,0.92,Wunderground v.1.15,2013-06-11 19:23:00,
2013-06-11 15:28:00,63.2,58.9,29.68,NW,322,1.0,1.0,86,0.00,,,0.92,Wunderground v.1.15,2013-06-11 19:28:00,
2013-06-11 15:33:00,63.8,59.2,29.68,NW,321,0.0,2.0,85,0.00,,,0.92,Wunderground v.1.15,2013-06-11 19:33:00,
2013-06-11 15:38:00,64.2,59.3,29.68,NW,321,1.0,2.0,84,0.00,,,0.92,Wunderground v.1.15,2013-06-11 19:38:00,
2013-06-11 15:44:00,64.3,59.4,29.67,East,82,3.0,3.0,84,0.00,,,0.92,Wunderground v.1.15,2013-06-11 19:44:00,
2013-06-11 15:49:00,64.0,59.1,29.67,East,83,0.0,3.0,84,0.00,,,0.92,Wunderground v.1.15,2013-06-11 19:49:00,
2013-06-11 15:54:00,64.0,59.1,29.67,ENE,65,0.0,3.0,84,0.00,,,0.92,Wunderground v.1.15,2013-06-11 19:54:00,
2013-06-11 15:59:00,64.0,59.1,29.67,ENE,63,2.0,3.0,84,0.00,,,0.92,Wunderground v.1.15,2013-06-11 19:59:00,
2013-06-11 16:04:00,63.8,58.9,29.67,ENE,63,0.0,1.0,84,0.00,,,0.92,Wunderground v.1.15,2013-06-11 20:04:00,
2013-06-11 16:09:00,63.8,59.2,29.67,ENE,63,1.0,3.0,85,0.00,,,0.92,Wunderground v.1.15,2013-06-11 20:09:00,
2013-06-11 16:14:00,64.0,59.4,29.67,ENE,63,0.0,2.0,85,0.00,,,0.92,Wunderground v.1.15,2013-06-11 20:14:00,
2013-06-11 16:19:00,63.9,59.3,29.67,ENE,63,0.0,5.0,85,0.00,,,0.92,Wunderground v.1.15,2013-06-11 20:19:00,
2013-06-11 16:25:00,64.1,59.2,29.66,ENE,63,1.0,2.0,84,0.00,,,0.92,Wunderground v.1.15,2013-06-11 20:25:00,
2013-06-11 16:30:00,64.3,59.4,29.65,ENE,63,0.0,2.0,84,0.00,,,0.92,Wunderground v.1.15,2013-06-11 20:30:00,
2013-06-11 16:35:00,64.2,59.3,29.65,ENE,70,1.0,4.0,84,0.00,,,0.92,Wunderground v.1.15,2013-06-11 20:35:00,
2013-06-11 16:40:00,64.3,59.7,29.66,NE,34,3.0,4.0,85,0.00,,,0.92,Wunderground v.1.15,2013-06-11 20:40:00,
2013-06-11 16:45:00,63.8,58.5,29.65,East,90,4.0,6.0,83,0.00,,,0.92,Wunderground v.1.15,2013-06-11 20:45:00,
2013-06-11 16:50:00,63.0,58.7,29.65,NNE,29,2.0,7.0,86,0.00,,,0.92,Wunderground v.1.15,2013-06-11 20:50:00,
2013-06-11 16:55:00,62.9,58.6,29.65,East,80,2.0,2.0,86,0.00,,,0.92,Wunderground v.1.15,2013-06-11 20:55:00,
2013-06-11 17:00:00,63.0,58.7,29.64,WNW,303,1.0,6.0,86,0.00,,,0.92,Wunderground v.1.15,2013-06-11 21:00:00,
2013-06-11 17:05:00,63.0,58.7,29.64,ENE,61,0.0,4.0,86,0.00,,,0.92,Wunderground v.1.15,2013-06-11 21:05:00,
2013-06-11 17:10:00,63.1,58.8,29.63,East,87,0.0,4.0,86,0.00,,,0.92,Wunderground v.1.15,2013-06-11 21:10:00,
2013-06-11 17:15:00,63.1,58.8,29.62,East,93,1.0,6.0,86,0.00,,,0.92,Wunderground v.1.15,2013-06-11 21:15:00,
2013-06-11 17:20:00,63.1,58.8,29.62,ESE,113,1.0,6.0,86,0.00,,,0.92,Wunderground v.1.15,2013-06-11 21:20:00,
2013-06-11 17:25:00,63.2,59.3,29.62,NE,53,5.0,5.0,87,0.00,,,0.92,Wunderground v.1.15,2013-06-11 21:25:00,
2013-06-11 17:30:00,62.7,58.8,29.62,ENE,59,2.0,5.0,87,0.00,,,0.93,Wunderground v.1.15,2013-06-11 21:30:00,
2013-06-11 17:35:00,62.2,58.3,29.62,ENE,57,3.0,5.0,87,0.00,,,0.93,Wunderground v.1.15,2013-06-11 21:35:00,
2013-06-11 17:40:00,61.5,57.6,29.62,ENE,76,3.0,7.0,87,0.00,,,0.93,Wunderground v.1.15,2013-06-11 21:40:00,
2013-06-11 17:45:00,61.2,57.6,29.63,ESE,103,1.0,3.0,88,0.00,,,0.93,Wunderground v.1.15,2013-06-11 21:45:00,
2013-06-11 17:50:00,60.9,57.3,29.62,East,79,2.0,5.0,88,0.00,,,0.93,Wunderground v.1.15,2013-06-11 21:50:00,
2013-06-11 17:55:00,60.8,57.5,29.62,North,360,0.0,2.0,89,0.00,,,0.93,Wunderground v.1.15,2013-06-11 21:55:00,
2013-06-11 18:00:00,60.6,57.3,29.61,East,97,0.0,7.0,89,0.25,,,0.95,Wunderground v.1.15,2013-06-11 22:00:00,
2013-06-11 18:05:00,60.3,57.0,29.61,ESE,106,0.0,2.0,89,0.23,,,0.97,Wunderground v.1.15,2013-06-11 22:05:00,
2013-06-11 18:10:00,60.2,56.9,29.60,ESE,111,0.0,4.0,89,2.28,,,1.03,Wunderground v.1.15,2013-06-11 22:10:00,
2013-06-11 18:15:00,60.0,56.7,29.60,WSW,256,1.0,3.0,89,1.02,,,1.10,Wunderground v.1.15,2013-06-11 22:15:00,
2013-06-11 18:20:00,59.6,56.4,29.61,West,277,6.0,6.0,89,0.69,,,1.22,Wunderground v.1.15,2013-06-11 22:20:00,
2013-06-11 18:25:00,59.3,56.1,29.61,WSW,248,2.0,4.0,89,0.80,,,1.29,Wunderground v.1.15,2013-06-11 22:25:00,
2013-06-11 18:30:00,59.0,55.8,29.61,East,95,0.0,4.0,89,0.49,,,1.34,Wunderground v.1.15,2013-06-11 22:30:00,
2013-06-11 18:35:00,58.9,55.4,29.61,NW,305,1.0,3.0,88,0.22,,,1.36,Wunderground v.1.15,2013-06-11 22:35:00,
2013-06-11 18:41:00,58.9,55.4,29.61,NW,313,1.0,3.0,88,0.13,,,1.37,Wunderground v.1.15,2013-06-11 22:41:00,
2013-06-11 18:46:00,58.7,55.2,29.61,East,79,0.0,5.0,88,0.18,,,1.39,Wunderground v.1.15,2013-06-11 22:46:00,
2013-06-11 18:51:00,58.8,55.3,29.60,East,79,0.0,5.0,88,0.47,,,1.44,Wunderground v.1.15,2013-06-11 22:51:00,
2013-06-11 18:56:00,58.9,55.4,29.60,WNW,296,3.0,3.0,88,0.25,,,1.46,Wunderground v.1.15,2013-06-11 22:56:00,
2013-06-11 19:01:00,58.9,55.4,29.60,WNW,294,0.0,3.0,88,0.09,,,1.46,Wunderground v.1.15,2013-06-11 23:01:00,
2013-06-11 19:06:00,58.8,55.3,29.60,WNW,294,0.0,2.0,88,0.07,,,1.47,Wunderground v.1.15,2013-06-11 23:06:00,
2013-06-11 19:11:00,58.8,55.3,29.60,WNW,294,1.0,2.0,88,0.10,,,1.48,Wunderground v.1.15,2013-06-11 23:11:00,
2013-06-11 19:16:00,58.7,55.2,29.61,ENE,65,0.0,2.0,88,0.08,,,1.48,Wunderground v.1.15,2013-06-11 23:16:00,
2013-06-11 19:21:00,58.6,55.1,29.61,WNW,291,2.0,4.0,88,0.05,,,1.49,Wunderground v.1.15,2013-06-11 23:21:00,
2013-06-11 19:26:00,58.6,55.1,29.62,NW,310,5.0,5.0,88,0.14,,,1.50,Wunderground v.1.15,2013-06-11 23:26:00,
2013-06-11 19:31:00,58.4,54.9,29.63,WSW,250,3.0,10.0,88,0.22,,,1.52,Wunderground v.1.15,2013-06-11 23:31:00,
2013-06-11 19:37:00,58.4,54.9,29.62,NW,314,0.0,3.0,88,0.15,,,1.53,Wunderground v.1.15,2013-06-11 23:37:00,
2013-06-11 19:42:00,58.4,54.9,29.61,NW,315,1.0,3.0,88,0.07,,,1.54,Wunderground v.1.15,2013-06-11 23:42:00,
2013-06-11 19:47:00,58.4,54.9,29.61,NW,316,0.0,2.0,88,0.07,,,1.54,Wunderground v.1.15,2013-06-11 23:47:00,
2013-06-11 19:52:00,58.4,54.9,29.61,NW,316,0.0,2.0,88,0.06,,,1.54,Wunderground v.1.15,2013-06-11 23:52:00,
2013-06-11 19:57:00,58.5,55.0,29.61,NW,304,1.0,3.0,88,0.04,,,1.54,Wunderground v.1.15,2013-06-11 23:57:00,
2013-06-11 20:02:00,58.5,55.0,29.61,NW,304,0.0,3.0,88,0.00,,,1.54,Wunderground v.1.15,2013-06-12 00:02:00,
2013-06-11 20:07:00,58.4,54.9,29.62,NW,305,3.0,3.0,88,0.00,,,1.54,Wunderground v.1.15,2013-06-12 00:07:00,
2013-06-11 20:12:00,58.4,54.9,29.62,NW,305,0.0,4.0,88,0.00,,,1.55,Wunderground v.1.15,2013-06-12 00:12:00,
2013-06-11 20:17:00,58.3,54.8,29.62,WNW,302,2.0,8.0,88,0.00,,,1.55,Wunderground v.1.15,2013-06-12 00:17:00,
2013-06-11 20:22:00,58.1,54.6,29.62,NW,318,1.0,8.0,88,0.00,,,1.55,Wunderground v.1.15,2013-06-12 00:22:00,
2013-06-11 20:27:00,58.0,54.5,29.62,WNW,286,0.0,6.0,88,0.00,,,1.55,Wunderground v.1.15,2013-06-12 00:27:00,
2013-06-11 20:32:00,58.0,54.5,29.62,WNW,299,7.0,7.0,88,0.00,,,1.55,Wunderground v.1.15,2013-06-12 00:32:00,
2013-06-11 20:37:00,57.8,54.3,29.63,WNW,294,2.0,7.0,88,0.00,,,1.55,Wunderground v.1.15,2013-06-12 00:37:00,
2013-06-11 20:42:00,57.7,54.2,29.63,WNW,298,0.0,7.0,88,0.00,,,1.55,Wunderground v.1.15,2013-06-12 00:42:00,
2013-06-11 20:47:00,57.7,54.2,29.63,WNW,298,2.0,3.0,88,0.00,,,1.55,Wunderground v.1.15,2013-06-12 00:47:00,
2013-06-11 20:52:00,57.6,54.1,29.63,WNW,286,2.0,4.0,88,0.00,,,1.55,Wunderground v.1.15,2013-06-12 00:52:00,
2013-06-11 20:57:00,57.5,54.0,29.64,WNW,286,1.0,3.0,88,0.00,,,1.55,Wunderground v.1.15,2013-06-12 00:57:00,
2013-06-11 21:02:00,57.5,54.0,29.63,WNW,286,0.0,1.0,88,0.00,,,1.55,Wunderground v.1.15,2013-06-12 01:02:00,
2013-06-11 21:07:00,57.5,54.0,29.63,WNW,286,0.0,1.0,88,0.00,,,1.55,Wunderground v.1.15,2013-06-12 01:07:00,
2013-06-11 21:12:00,57.5,54.0,29.63,WNW,286,1.0,1.0,88,0.00,,,1.55,Wunderground v.1.15,2013-06-12 01:12:00,
2013-06-11 21:17:00,57.4,53.9,29.63,WNW,286,1.0,1.0,88,0.00,,,1.55,Wunderground v.1.15,2013-06-12 01:17:00,
2013-06-11 21:22:00,57.3,53.8,29.64,WNW,286,2.0,2.0,88,0.00,,,1.55,Wunderground v.1.15,2013-06-12 01:22:00,
2013-06-11 21:27:00,57.4,53.9,29.64,WNW,286,1.0,2.0,88,0.00,,,1.55,Wunderground v.1.15,2013-06-12 01:27:00,
2013-06-11 21:33:00,57.4,53.9,29.64,WNW,286,1.0,3.0,88,0.00,,,1.55,Wunderground v.1.15,2013-06-12 01:33:00,
2013-06-11 21:38:00,57.3,53.8,29.64,WNW,286,1.0,3.0,88,0.00,,,1.55,Wunderground v.1.15,2013-06-12 01:38:00,
2013-06-11 21:43:00,57.3,53.8,29.64,WNW,286,0.0,1.0,88,0.00,,,1.55,Wunderground v.1.15,2013-06-12 01:43:00,
2013-06-11 21:48:00,57.5,54.0,29.64,WNW,286,0.0,1.0,88,0.00,,,1.55,Wunderground v.1.15,2013-06-12 01:48:00,
2013-06-11 21:53:00,59.7,55.8,29.64,WNW,286,0.0,1.0,87,0.00,,,1.55,Wunderground v.1.15,2013-06-12 01:53:00,
2013-06-11 21:58:00,59.0,55.1,29.64,WNW,286,0.0,1.0,87,0.00,,,1.55,Wunderground v.1.15,2013-06-12 01:58:00,
2013-06-11 22:03:00,58.2,54.7,29.64,WNW,286,0.0,0.0,88,0.00,,,1.55,Wunderground v.1.15,2013-06-12 02:03:00,
2013-06-11 22:08:00,58.0,54.5,29.64,WNW,286,0.0,0.0,88,0.00,,,1.55,Wunderground v.1.15,2013-06-12 02:08:00,
2013-06-11 22:13:00,57.7,54.2,29.64,WNW,286,0.0,0.0,88,0.00,,,1.55,Wunderground v.1.15,2013-06-12 02:13:00,
2013-06-11 22:18:00,57.3,53.8,29.64,WNW,286,0.0,0.0,88,0.00,,,1.55,Wunderground v.1.15,2013-06-12 02:18:00,
2013-06-11 22:23:00,57.3,53.8,29.64,WNW,286,0.0,0.0,88,0.00,,,1.55,Wunderground v.1.15,2013-06-12 02:23:00,
2013-06-11 22:29:00,57.2,53.7,29.64,WNW,286,0.0,0.0,88,0.00,,,1.55,Wunderground v.1.15,2013-06-12 02:29:00,
2013-06-11 22:34:00,57.1,53.6,29.64,WNW,286,0.0,0.0,88,0.00,,,1.55,Wunderground v.1.15,2013-06-12 02:34:00,
2013-06-11 22:39:00,57.1,53.6,29.64,WNW,286,0.0,0.0,88,0.00,,,1.55,Wunderground v.1.15,2013-06-12 02:39:00,
2013-06-11 22:44:00,57.1,53.6,29.64,WNW,286,0.0,1.0,88,0.00,,,1.55,Wunderground v.1.15,2013-06-12 02:44:00,
2013-06-11 22:49:00,57.1,53.6,29.64,WNW,286,0.0,2.0,88,0.00,,,1.55,Wunderground v.1.15,2013-06-12 02:49:00,
2013-06-11 22:54:00,57.0,53.5,29.64,WNW,286,0.0,1.0,88,0.00,,,1.55,Wunderground v.1.15,2013-06-12 02:54:00,
2013-06-11 22:59:00,56.9,53.4,29.64,WNW,286,0.0,1.0,88,0.00,,,1.55,Wunderground v.1.15,2013-06-12 02:59:00,
2013-06-11 23:04:00,56.8,53.3,29.63,WNW,286,0.0,1.0,88,0.00,,,1.55,Wunderground v.1.15,2013-06-12 03:04:00,
2013-06-11 23:09:00,56.7,53.2,29.63,WNW,286,0.0,1.0,88,0.00,,,1.55,Wunderground v.1.15,2013-06-12 03:09:00,
2013-06-11 23:14:00,56.7,53.2,29.63,WNW,286,0.0,0.0,88,0.00,,,1.55,Wunderground v.1.15,2013-06-12 03:14:00,
2013-06-11 23:19:00,56.7,53.2,29.63,WNW,286,0.0,0.0,88,0.00,,,1.55,Wunderground v.1.15,2013-06-12 03:19:00,
2013-06-11 23:24:00,56.7,53.2,29.63,WNW,286,0.0,0.0,88,0.00,,,1.55,Wunderground v.1.15,2013-06-12 03:24:00,
2013-06-11 23:29:00,56.7,53.2,29.63,WNW,286,0.0,0.0,88,0.00,,,1.55,Wunderground v.1.15,2013-06-12 03:29:00,
2013-06-11 23:34:00,56.7,53.2,29.63,WNW,286,0.0,0.0,88,0.00,,,1.55,Wunderground v.1.15,2013-06-12 03:34:00,
2013-06-11 23:38:00,56.5,53.0,29.63,WNW,286,0.0,1.0,88,0.00,,,1.55,Wunderground v.1.15,2013-06-12 03:38:00,
2013-06-11 23:39:00,56.5,53.0,29.63,WNW,286,0.0,1.0,88,0.00,,,1.55,Wunderground v.1.15,2013-06-12 03:39:00,
2013-06-11 23:40:00,56.7,53.2,29.63,WNW,286,0.0,0.0,88,0.00,,,1.55,Wunderground v.1.15,2013-06-12 03:40:00,
2013-06-11 23:41:00,56.5,53.0,29.63,WNW,286,0.0,1.0,88,0.00,,,1.55,Wunderground v.1.15,2013-06-12 03:41:00,
2013-06-11 23:42:00,56.5,53.0,29.63,WNW,286,0.0,1.0,88,0.00,,,1.55,Wunderground v.1.15,2013-06-12 03:42:00,
2013-06-11 23:43:00,56.4,52.9,29.63,WNW,286,0.0,1.0,88,0.00,,,0.00,Wunderground v.1.15,2013-06-12 03:43:00,
2013-06-11 23:44:00,56.4,52.9,29.63,WNW,286,0.0,1.0,88,0.00,,,0.00,Wunderground v.1.15,2013-06-12 03:44:00,
2013-06-11 23:45:00,56.7,53.2,29.63,WNW,286,0.0,0.0,88,0.00,,,1.55,Wunderground v.1.15,2013-06-12 03:45:00,
2013-06-11 23:46:00,56.4,52.9,29.62,WNW,286,1.0,2.0,88,0.00,,,0.00,Wunderground v.1.15,2013-06-12 03:46:00,
2013-06-11 23:50:00,56.6,53.1,29.63,WNW,286,0.0,1.0,88,0.00,,,1.55,Wunderground v.1.15,2013-06-12 03:50:00,
2013-06-11 23:55:00,56.5,53.0,29.63,WNW,286,0.0,1.0,88,0.00,,,1.55,Wunderground v.1.15,2013-06-12 03:55:00,